CheckWX is a tool to help pilots better visualize weather data.  It is not intended as a substitute for an official pre-flight weather briefing.

06:10:14 UTC

KPHT METAR
Henry County Airport
Paris, Tennessee, USA
Current

15 mins ago

KPHT 230555Z AUTO 21004KT 10SM CLR 16/11 A3007 RMK A01
Observed
Apr-23 @ 05:55 UTC
Wind
  • 210° at 4 KTS
Visibility
10 SM
Flight Rules
VFR
Cloud Levels
  • Clear skies
Temperature
16°C / 61°F
Dewpoint
11°C / 52°F
Humidity
72%
Altimeter
30.07" Hg
Pressure
1018.32 hPa
Previous

35 mins ago

KPHT 230535Z AUTO 21007KT 10SM CLR 17/11 A3007 RMK A01
Observed
Apr-23 @ 05:35 UTC
Wind
  • 210° at 7 KTS
Visibility
10 SM
Flight Rules
VFR
Cloud Levels
  • Clear skies
Temperature
17°C / 63°F
Dewpoint
11°C / 52°F
Humidity
68%
Altimeter
30.07" Hg
Pressure
1018.32 hPa
Previous

55 mins ago

KPHT 230515Z AUTO 20008KT 10SM CLR 17/11 A3007 RMK A01
Observed
Apr-23 @ 05:15 UTC
Wind
  • 200° at 8 KTS
Visibility
10 SM
Flight Rules
VFR
Cloud Levels
  • Clear skies
Temperature
17°C / 63°F
Dewpoint
11°C / 52°F
Humidity
68%
Altimeter
30.07" Hg
Pressure
1018.32 hPa